KMBS/MBS METAR and TAF weather

Enter ICAO airport designator
Station Type Date Time Source
KMBS METAR 2021/09/20 03:53 UTC NOAA

KMBS 200353Z 15006KT 10SM CLR 19/13 A3012 RMK AO2 SLP196 T01890128


Station Type Date Time Source
KMBS Decoded METAR 2021/09/20 03:53 UTC NOAA

MBS INTERNATIONAL AIRPORT, MI, United States (KMBS) 43-32N 084-05W 202M
Sep 19, 2021 - 11:53 PM EDT / 2021.09.20 0353 UTC
Wind: from the SSE (150 degrees) at 7 MPH (6 KT):0
Visibility: 10 mile(s):0
Sky conditions: clear
Temperature: 66.0 F (18.9 C)
Dew Point: 55.0 F (12.8 C)
Relative Humidity: 67%
Pressure (altimeter): 30.12 in. Hg (1019 hPa)
ob: KMBS 200353Z 15006KT 10SM CLR 19/13 A3012 RMK AO2 SLP196 T01890128
cycle: 4

Station Type Date Time Source
KMBS TAF 2021/09/19 18:22 UTC NOAA

TAF KMBS 191720Z 1918/2018 14008KT P6SM SKC
FM200000 12006KT P6SM SKC
FM201000 15008KT P6SM SCT250
FM201400 17008KT P6SM BKN150

Example: see airport list